createdAt,value
2022-10-11T00:00:48.004Z,8.90
2022-10-11T00:01:48.063Z,10.70
2022-10-11T00:02:47.949Z,9.20
2022-10-11T00:03:47.927Z,8.40
2022-10-11T00:04:47.900Z,7.60
2022-10-11T00:05:47.893Z,12.10
2022-10-11T00:06:47.853Z,6.90
2022-10-11T00:07:47.827Z,8.10
2022-10-11T00:08:47.806Z,9.20
2022-10-11T00:09:47.776Z,8.30
2022-10-11T00:10:47.753Z,10.60
2022-10-11T00:11:47.732Z,8.30
2022-10-11T00:12:47.712Z,7.00
2022-10-11T00:13:47.680Z,10.80
2022-10-11T00:14:47.656Z,7.70
2022-10-11T00:15:47.632Z,9.50
2022-10-11T00:16:47.612Z,8.20
2022-10-11T00:17:47.583Z,8.20
2022-10-11T00:18:47.555Z,7.40
2022-10-11T00:19:47.533Z,9.90
2022-10-11T00:20:47.512Z,8.80
2022-10-11T00:21:47.505Z,7.90
2022-10-11T00:22:47.461Z,7.70
2022-10-11T00:23:47.440Z,10.50
2022-10-11T00:24:47.411Z,9.70
2022-10-11T00:25:47.389Z,7.40
2022-10-11T00:26:47.364Z,8.40
2022-10-11T00:27:47.346Z,10.50
2022-10-11T00:28:47.380Z,8.10
2022-10-11T00:29:47.294Z,8.00
2022-10-11T00:30:47.270Z,12.30
2022-10-11T00:31:47.240Z,8.90
2022-10-11T00:32:47.225Z,11.40
2022-10-11T00:33:47.196Z,8.80
2022-10-11T00:34:47.170Z,8.60
2022-10-11T00:35:47.150Z,8.60
2022-10-11T00:36:47.124Z,8.30
2022-10-11T00:37:47.112Z,9.70
2022-10-11T00:38:47.071Z,10.30
2022-10-11T00:39:47.053Z,8.50
2022-10-11T00:40:47.019Z,8.10
2022-10-11T00:41:46.997Z,9.80
2022-10-11T00:42:46.975Z,9.00
2022-10-11T00:43:46.948Z,10.50
2022-10-11T00:44:46.928Z,9.40
2022-10-11T00:45:46.895Z,8.90
2022-10-11T00:46:46.873Z,7.80
2022-10-11T00:47:46.851Z,8.20
2022-10-11T00:48:46.830Z,9.80
2022-10-11T00:49:46.804Z,8.70
2022-10-11T00:50:46.781Z,8.80
2022-10-11T00:51:46.754Z,10.80
2022-10-11T00:52:46.733Z,9.30
2022-10-11T00:53:46.734Z,7.60
2022-10-11T00:54:46.679Z,6.90
2022-10-11T00:55:46.663Z,10.30
2022-10-11T00:56:46.638Z,9.00
2022-10-11T00:57:46.606Z,8.70
2022-10-11T00:58:46.578Z,8.30
2022-10-11T00:59:46.557Z,9.80
2022-10-11T01:00:46.533Z,9.10
2022-10-11T01:01:46.654Z,9.90
2022-10-11T01:02:46.484Z,9.20
2022-10-11T01:03:46.455Z,8.70
2022-10-11T01:04:46.433Z,9.30
2022-10-11T01:05:46.408Z,10.00
2022-10-11T01:06:46.385Z,7.80
2022-10-11T01:07:46.358Z,10.00
2022-10-11T01:08:46.338Z,8.40
2022-10-11T01:09:46.328Z,9.60
2022-10-11T01:10:46.286Z,10.70
2022-10-11T01:11:46.258Z,9.50
2022-10-11T01:12:46.236Z,10.80
2022-10-11T01:13:46.218Z,9.20
2022-10-11T01:14:46.188Z,8.50
2022-10-11T01:15:46.167Z,8.60
2022-10-11T01:16:46.142Z,7.80
2022-10-11T01:17:46.117Z,6.60
2022-10-11T01:18:46.093Z,7.80
2022-10-11T01:19:46.071Z,6.50
2022-10-11T01:20:46.042Z,5.30
2022-10-11T01:21:46.020Z,7.50
2022-10-11T01:22:45.999Z,7.20
2022-10-11T01:23:45.970Z,9.90
2022-10-11T01:24:45.946Z,9.60
2022-10-11T01:25:45.946Z,8.30
2022-10-11T01:26:45.896Z,6.70
2022-10-11T01:27:45.870Z,5.30
2022-10-11T01:28:45.911Z,6.60
2022-10-11T01:29:45.821Z,6.30
2022-10-11T01:30:45.801Z,7.40
2022-10-11T01:31:45.771Z,7.00
2022-10-11T01:32:45.752Z,6.10
2022-10-11T01:33:45.723Z,10.80
2022-10-11T01:34:45.698Z,9.90
2022-10-11T01:35:45.678Z,13.30
2022-10-11T01:36:45.656Z,29.50
2022-10-11T01:37:45.624Z,18.90
2022-10-11T01:38:45.603Z,4.30
2022-10-11T01:39:45.581Z,6.20
2022-10-11T01:40:45.554Z,16.70
2022-10-11T01:41:45.542Z,5.60
2022-10-11T01:42:45.501Z,5.40
2022-10-11T01:43:45.473Z,7.70
2022-10-11T01:44:45.449Z,5.90
2022-10-11T01:45:45.420Z,7.70
2022-10-11T01:46:45.401Z,7.10
2022-10-11T01:47:45.373Z,5.70
2022-10-11T01:48:45.354Z,6.90
2022-10-11T01:49:45.323Z,6.70
2022-10-11T01:50:45.301Z,6.20
2022-10-11T01:51:47.510Z,6.80
2022-10-11T01:52:45.255Z,6.40
2022-10-11T01:53:45.227Z,6.60
2022-10-11T01:55:08.233Z,6.50
2022-10-11T01:55:45.178Z,6.60
2022-10-11T01:56:45.158Z,9.50
2022-10-11T01:57:45.150Z,8.30
2022-10-11T01:58:45.100Z,9.20
2022-10-11T01:59:45.078Z,7.00
2022-10-11T02:00:45.052Z,7.00
2022-10-11T02:01:45.187Z,7.50
2022-10-11T02:02:45.002Z,7.80
2022-10-11T02:03:44.976Z,7.40
2022-10-11T02:04:44.960Z,8.10
2022-10-11T02:05:44.932Z,9.20
2022-10-11T02:06:44.904Z,7.00
2022-10-11T02:07:44.880Z,6.30
2022-10-11T02:08:44.861Z,8.80
2022-10-11T02:09:44.831Z,7.50
2022-10-11T02:10:44.815Z,7.70
2022-10-11T02:11:44.789Z,7.90
2022-10-11T02:12:44.759Z,8.90
2022-10-11T02:13:44.755Z,5.50
2022-10-11T02:14:44.712Z,7.20
2022-10-11T02:15:44.683Z,9.70
2022-10-11T02:16:44.655Z,7.60
2022-10-11T02:17:44.633Z,7.00
2022-10-11T02:18:44.606Z,7.60
2022-10-11T02:19:44.580Z,6.70
2022-10-11T02:20:44.555Z,8.10
2022-10-11T02:21:44.538Z,11.50
2022-10-11T02:22:44.511Z,14.00
2022-10-11T02:23:44.484Z,7.40
2022-10-11T02:24:44.459Z,6.50
2022-10-11T02:25:44.437Z,8.20
2022-10-11T02:26:44.416Z,7.20
2022-10-11T02:27:44.386Z,6.70
2022-10-11T02:28:44.496Z,10.30
2022-10-11T02:29:44.359Z,8.40
2022-10-11T02:30:44.310Z,8.50
2022-10-11T02:31:44.285Z,9.60
2022-10-11T02:32:44.263Z,6.30
2022-10-11T02:33:44.231Z,7.40
2022-10-11T02:34:44.209Z,11.90
2022-10-11T02:35:44.194Z,7.30
2022-10-11T02:36:44.162Z,9.10
2022-10-11T02:37:44.133Z,7.50
2022-10-11T02:38:44.113Z,10.50
2022-10-11T02:39:44.085Z,10.30
2022-10-11T02:40:44.062Z,8.30
2022-10-11T02:41:44.035Z,8.40
2022-10-11T02:42:44.011Z,9.00
2022-10-11T02:43:43.990Z,8.20
2022-10-11T02:44:43.962Z,7.80
2022-10-11T02:45:43.955Z,9.40
2022-10-11T02:46:43.910Z,9.80
2022-10-11T02:47:43.887Z,9.40
2022-10-11T02:48:43.865Z,9.10
2022-10-11T02:49:43.835Z,8.80
2022-10-11T02:50:43.813Z,9.10
2022-10-11T02:51:43.786Z,11.30
2022-10-11T02:52:43.767Z,10.10
2022-10-11T02:53:43.740Z,10.00
2022-10-11T02:54:43.716Z,9.00
2022-10-11T02:55:43.691Z,9.20
2022-10-11T02:56:43.660Z,12.00
2022-10-11T02:57:43.643Z,10.80
2022-10-11T02:58:43.619Z,10.90
2022-10-11T02:59:43.593Z,11.70
2022-10-11T03:00:43.566Z,11.00
2022-10-11T03:01:43.632Z,12.00
2022-10-11T03:02:43.515Z,12.60
2022-10-11T03:03:43.491Z,13.00
2022-10-11T03:04:43.468Z,12.30
2022-10-11T03:05:43.442Z,10.40
2022-10-11T03:06:43.411Z,11.30
2022-10-11T03:07:43.388Z,13.10
2022-10-11T03:08:43.366Z,10.60
2022-10-11T03:09:43.335Z,11.50
2022-10-11T03:10:43.317Z,10.50
2022-10-11T03:11:43.289Z,10.70
2022-10-11T03:12:43.263Z,11.50
2022-10-11T03:13:43.237Z,12.50
2022-10-11T03:14:43.212Z,11.50
2022-10-11T03:15:43.186Z,11.40
2022-10-11T03:16:43.165Z,10.10
2022-10-11T03:17:43.157Z,8.40
2022-10-11T03:18:43.113Z,8.30
2022-10-11T03:19:43.090Z,9.20
2022-10-11T03:20:43.063Z,8.60
2022-10-11T03:21:43.037Z,10.40
2022-10-11T03:22:43.014Z,9.00
2022-10-11T03:23:42.992Z,9.60
2022-10-11T03:24:42.966Z,8.60
2022-10-11T03:25:42.934Z,7.20
2022-10-11T03:26:42.912Z,9.20
2022-10-11T03:27:42.890Z,8.10
2022-10-11T03:28:42.953Z,9.40
2022-10-11T03:29:42.844Z,8.60
2022-10-11T03:30:42.817Z,9.40
2022-10-11T03:31:42.783Z,8.10
2022-10-11T03:32:42.766Z,8.10
2022-10-11T03:33:42.755Z,6.20
2022-10-11T03:34:42.713Z,7.50
2022-10-11T03:35:42.687Z,9.10
2022-10-11T03:36:42.666Z,7.70
2022-10-11T03:37:42.634Z,6.60
2022-10-11T03:38:42.611Z,6.00
2022-10-11T03:39:42.586Z,6.30
2022-10-11T03:40:42.564Z,7.70
2022-10-11T03:41:42.536Z,7.80
2022-10-11T03:42:42.509Z,6.10
2022-10-11T03:43:42.482Z,7.20
2022-10-11T03:44:42.470Z,8.00
2022-10-11T03:45:42.453Z,7.40
2022-10-11T03:46:42.411Z,8.10
2022-10-11T03:47:42.388Z,9.60
2022-10-11T03:48:42.366Z,11.40
2022-10-11T03:49:43.772Z,9.10
2022-10-11T03:50:42.313Z,8.10
2022-10-11T03:51:42.288Z,8.20
2022-10-11T03:52:42.264Z,9.10
2022-10-11T03:53:42.233Z,13.10
2022-10-11T03:54:42.213Z,16.30
2022-10-11T03:55:42.184Z,9.20
2022-10-11T03:56:42.158Z,14.90
2022-10-11T03:57:42.131Z,6.50
2022-10-11T03:58:42.109Z,7.60
2022-10-11T03:59:42.080Z,7.60
2022-10-11T04:00:42.058Z,8.00
2022-10-11T04:01:42.117Z,8.80
2022-10-11T04:02:42.010Z,8.50
2022-10-11T04:03:41.983Z,10.00
2022-10-11T04:04:41.963Z,8.20
2022-10-11T04:05:41.955Z,7.60
2022-10-11T04:06:41.911Z,9.50
2022-10-11T04:07:41.890Z,8.00
2022-10-11T04:08:41.858Z,8.00
2022-10-11T04:09:41.832Z,6.00
2022-10-11T04:10:41.818Z,7.20
2022-10-11T04:11:41.784Z,6.90
2022-10-11T04:12:41.754Z,9.60
2022-10-11T04:13:41.732Z,10.70
2022-10-11T04:14:41.705Z,7.60
2022-10-11T04:15:41.682Z,7.00
2022-10-11T04:16:41.659Z,7.50
2022-10-11T04:17:41.632Z,8.40
2022-10-11T04:18:41.603Z,7.20
2022-10-11T04:19:41.589Z,8.80
2022-10-11T04:20:41.555Z,8.30
2022-10-11T04:21:41.559Z,7.20
2022-10-11T04:22:41.503Z,8.00
2022-10-11T04:23:41.483Z,5.80
2022-10-11T04:24:41.454Z,6.20
2022-10-11T04:25:41.429Z,8.50
2022-10-11T04:26:41.403Z,7.90
2022-10-11T04:27:41.380Z,6.30
2022-10-11T04:28:41.411Z,8.20
2022-10-11T04:29:41.327Z,9.30
2022-10-11T04:30:41.299Z,6.90
2022-10-11T04:31:41.280Z,8.20
2022-10-11T04:32:41.252Z,8.20
2022-10-11T04:33:41.232Z,6.10
2022-10-11T04:34:41.200Z,6.60
2022-10-11T04:35:41.188Z,7.90
2022-10-11T04:36:41.154Z,6.70
2022-10-11T04:37:41.154Z,7.80
2022-10-11T04:38:41.103Z,9.30
2022-10-11T04:39:41.074Z,12.70
2022-10-11T04:40:41.055Z,8.80
2022-10-11T04:41:41.027Z,9.00
2022-10-11T04:42:41.001Z,9.30
2022-10-11T04:43:40.981Z,8.50
2022-10-11T04:44:40.955Z,8.40
2022-10-11T04:45:40.928Z,9.50
2022-10-11T04:46:40.897Z,17.40
2022-10-11T04:47:40.878Z,9.70
2022-10-11T04:48:40.850Z,12.60
2022-10-11T04:49:40.831Z,15.60
2022-10-11T04:50:40.800Z,20.80
2022-10-11T04:51:40.774Z,14.00
2022-10-11T04:52:40.749Z,18.00
2022-10-11T04:53:40.739Z,20.70
2022-10-11T04:54:40.693Z,9.20
2022-10-11T04:55:40.670Z,13.30
2022-10-11T04:56:40.643Z,12.10
2022-10-11T04:57:40.620Z,9.40
2022-10-11T04:58:40.596Z,7.00
2022-10-11T04:59:40.569Z,8.30
2022-10-11T05:00:40.540Z,6.70
2022-10-11T05:01:40.557Z,7.90
2022-10-11T05:02:40.492Z,8.30
2022-10-11T05:03:40.468Z,7.20
2022-10-11T05:04:40.444Z,8.40
2022-10-11T05:05:40.418Z,7.20
2022-10-11T05:06:40.394Z,6.70
2022-10-11T05:07:40.366Z,6.30
2022-10-11T05:08:40.344Z,8.00
2022-10-11T05:09:40.336Z,9.50
2022-10-11T05:10:40.295Z,7.40
2022-10-11T05:11:40.269Z,8.70
2022-10-11T05:12:40.238Z,8.50
2022-10-11T05:13:40.215Z,8.00
2022-10-11T05:14:40.196Z,7.60
2022-10-11T05:15:40.167Z,8.50
2022-10-11T05:16:40.140Z,7.30
2022-10-11T05:17:40.111Z,6.60
2022-10-11T05:18:40.091Z,6.00
2022-10-11T05:19:40.062Z,5.90
2022-10-11T05:20:40.035Z,6.80
2022-10-11T05:21:40.012Z,5.60
2022-10-11T05:22:39.983Z,6.00
2022-10-11T05:23:39.969Z,5.90
2022-10-11T05:24:39.932Z,5.20
2022-10-11T05:25:39.932Z,6.50
2022-10-11T05:26:39.883Z,5.80
2022-10-11T05:27:39.862Z,5.70
2022-10-11T05:28:39.913Z,5.60
2022-10-11T05:29:39.814Z,5.00
2022-10-11T05:30:39.785Z,5.10
2022-10-11T05:31:39.757Z,6.50
2022-10-11T05:32:39.736Z,8.10
2022-10-11T05:33:39.709Z,5.70
2022-10-11T05:34:39.681Z,5.60
2022-10-11T05:35:39.662Z,7.60
2022-10-11T05:36:39.633Z,7.30
2022-10-11T05:37:39.602Z,5.40
2022-10-11T05:38:39.578Z,6.10
2022-10-11T05:39:39.561Z,5.90
2022-10-11T05:40:39.525Z,6.30
2022-10-11T05:41:39.531Z,5.40
2022-10-11T05:42:39.481Z,5.40
2022-10-11T05:43:39.456Z,6.90
2022-10-11T05:44:39.427Z,6.50
2022-10-11T05:45:39.405Z,5.90
2022-10-11T05:46:39.378Z,5.50
2022-10-11T05:47:39.350Z,5.70
2022-10-11T05:48:39.322Z,6.00
2022-10-11T05:49:39.298Z,5.90
2022-10-11T05:50:39.279Z,6.70
2022-10-11T05:51:39.295Z,7.00
2022-10-11T05:52:39.233Z,5.80
2022-10-11T05:53:39.206Z,5.60
2022-10-11T05:54:39.179Z,7.30
2022-10-11T05:55:39.147Z,5.90
2022-10-11T05:56:39.118Z,6.40
2022-10-11T05:57:39.120Z,6.70
2022-10-11T05:58:39.071Z,7.10
2022-10-11T05:59:39.055Z,5.70
2022-10-11T06:00:39.020Z,5.90
2022-10-11T06:01:39.073Z,6.60
2022-10-11T06:02:38.968Z,6.40
2022-10-11T06:03:38.946Z,7.20
2022-10-11T06:04:38.916Z,7.00
2022-10-11T06:05:38.888Z,6.30
2022-10-11T06:06:38.869Z,6.10
2022-10-11T06:07:38.843Z,7.20
2022-10-11T06:08:38.813Z,7.20
2022-10-11T06:09:38.788Z,8.10
2022-10-11T06:10:38.796Z,7.20
2022-10-11T06:11:38.742Z,6.20
2022-10-11T06:12:38.714Z,6.00
2022-10-11T06:13:38.713Z,5.60
2022-10-11T06:14:38.662Z,5.80
2022-10-11T06:15:38.635Z,6.30
2022-10-11T06:16:38.614Z,4.60
2022-10-11T06:17:38.605Z,5.00
2022-10-11T06:18:38.558Z,4.60
2022-10-11T06:19:38.535Z,5.80
2022-10-11T06:20:38.506Z,5.50
2022-10-11T06:21:38.485Z,8.20
2022-10-11T06:22:38.454Z,6.10
2022-10-11T06:23:38.448Z,6.70
2022-10-11T06:24:38.407Z,7.20
2022-10-11T06:25:38.386Z,8.20
2022-10-11T06:26:38.363Z,8.50
2022-10-11T06:27:38.334Z,6.70
2022-10-11T06:28:38.413Z,6.10
2022-10-11T06:29:38.311Z,7.50
2022-10-11T06:30:38.251Z,5.90
2022-10-11T06:31:38.227Z,7.40
2022-10-11T06:32:38.206Z,7.00
2022-10-11T06:33:38.175Z,7.40
2022-10-11T06:34:38.147Z,9.20
2022-10-11T06:35:38.130Z,9.60
2022-10-11T06:36:38.096Z,8.20
2022-10-11T06:37:38.071Z,9.20
2022-10-11T06:38:42.333Z,7.10
2022-10-11T06:39:38.028Z,6.90
2022-10-11T06:40:37.997Z,6.90
2022-10-11T06:41:37.973Z,9.70
2022-10-11T06:42:37.940Z,8.30
2022-10-11T06:43:37.920Z,7.00
2022-10-11T06:44:37.892Z,7.70
2022-10-11T06:45:37.889Z,11.40
2022-10-11T06:46:37.839Z,9.70
2022-10-11T06:47:37.818Z,8.40
2022-10-11T06:48:37.788Z,9.20
2022-10-11T06:49:37.770Z,10.70
2022-10-11T06:50:58.418Z,7.40
2022-10-11T06:51:37.714Z,7.10
2022-10-11T06:52:37.690Z,7.60
2022-10-11T06:53:37.663Z,7.50
2022-10-11T06:54:42.511Z,7.50
2022-10-11T06:55:37.613Z,7.30
2022-10-11T06:56:37.593Z,7.90
2022-10-11T06:57:37.558Z,10.90
2022-10-11T06:58:37.539Z,10.10
2022-10-11T06:59:37.514Z,11.90
2022-10-11T07:00:37.489Z,11.80
2022-10-11T07:01:37.529Z,7.40
2022-10-11T07:02:37.440Z,8.10
2022-10-11T07:03:37.412Z,8.10
2022-10-11T07:04:37.385Z,8.10
2022-10-11T07:05:37.356Z,9.50
2022-10-11T07:06:37.333Z,8.90
2022-10-11T07:07:37.308Z,8.90
2022-10-11T07:08:37.287Z,8.60
2022-10-11T07:09:37.257Z,9.80
2022-10-11T07:10:37.230Z,8.50
2022-10-11T07:11:37.209Z,6.90
2022-10-11T07:12:37.185Z,9.10
2022-10-11T07:13:37.157Z,9.20
2022-10-11T07:14:37.132Z,9.90
2022-10-11T07:15:37.109Z,9.40
2022-10-11T07:16:37.105Z,10.00
2022-10-11T07:17:37.080Z,7.90
2022-10-11T07:18:37.029Z,8.50
2022-10-11T07:19:37.009Z,9.70
2022-10-11T07:20:36.977Z,8.40
2022-10-11T07:21:36.951Z,8.60
2022-10-11T07:22:36.928Z,8.70
2022-10-11T07:23:36.903Z,8.00
2022-10-11T07:24:36.877Z,9.00
2022-10-11T07:25:36.851Z,8.40
2022-10-11T07:26:38.830Z,9.10
2022-10-11T07:27:36.800Z,8.80
2022-10-11T07:28:36.822Z,9.60
2022-10-11T07:29:36.749Z,9.70
2022-10-11T07:30:36.730Z,8.20
2022-10-11T07:31:36.699Z,8.40
2022-10-11T07:32:36.675Z,9.10
2022-10-11T07:33:36.662Z,11.00
2022-10-11T07:34:36.617Z,8.70
2022-10-11T07:35:36.603Z,10.80
2022-10-11T07:36:36.576Z,11.20
2022-10-11T07:37:36.548Z,9.00
2022-10-11T07:38:36.519Z,12.70
2022-10-11T07:39:36.495Z,9.40
2022-10-11T07:40:36.471Z,9.10
2022-10-11T07:41:36.453Z,9.20
2022-10-11T07:42:36.422Z,9.90
2022-10-11T07:43:36.395Z,10.40
2022-10-11T07:44:36.368Z,10.30
2022-10-11T07:45:36.347Z,9.10
2022-10-11T07:46:36.318Z,9.20
2022-10-11T07:47:36.298Z,9.30
2022-10-11T07:48:36.295Z,13.10
2022-10-11T07:49:36.263Z,10.00
2022-10-11T07:50:36.218Z,12.20
2022-10-11T07:51:36.194Z,12.20
2022-10-11T07:52:36.166Z,13.90
2022-10-11T07:53:36.146Z,15.20
2022-10-11T07:54:36.120Z,15.20
2022-10-11T07:55:36.095Z,18.10
2022-10-11T07:56:36.066Z,14.10
2022-10-11T07:57:36.046Z,17.90
2022-10-11T07:58:36.018Z,18.50
2022-10-11T07:59:35.989Z,14.30
2022-10-11T08:00:35.968Z,14.60
2022-10-11T08:01:36.017Z,13.30
2022-10-11T08:02:35.918Z,13.90
2022-10-11T08:03:35.896Z,19.10
2022-10-11T08:04:35.867Z,19.30
2022-10-11T08:05:35.863Z,16.80
2022-10-11T08:06:35.815Z,16.50
2022-10-11T08:07:35.791Z,17.60
2022-10-11T08:08:35.767Z,14.40
2022-10-11T08:09:35.746Z,14.20
2022-10-11T08:10:35.715Z,17.50
2022-10-11T08:11:35.693Z,20.40
2022-10-11T08:12:35.666Z,16.00
2022-10-11T08:13:35.647Z,15.90
2022-10-11T08:14:35.617Z,21.00
2022-10-11T08:15:35.591Z,15.30
2022-10-11T08:16:35.565Z,13.10
2022-10-11T08:17:35.536Z,17.00
2022-10-11T08:18:35.514Z,13.90
2022-10-11T08:19:35.490Z,12.40
2022-10-11T08:20:35.469Z,13.30
2022-10-11T08:21:35.472Z,13.20
2022-10-11T08:22:35.421Z,11.30
2022-10-11T08:23:35.387Z,12.00
2022-10-11T08:24:38.286Z,13.00
2022-10-11T08:25:35.361Z,14.80
2022-10-11T08:26:35.313Z,13.60
2022-10-11T08:27:35.294Z,13.70
2022-10-11T08:28:35.343Z,14.80
2022-10-11T08:29:35.244Z,15.40
2022-10-11T08:30:35.233Z,13.30
2022-10-11T08:31:35.202Z,13.80
2022-10-11T08:32:35.169Z,17.00
2022-10-11T08:33:35.142Z,12.90
2022-10-11T08:34:35.121Z,14.10
2022-10-11T08:35:35.087Z,15.90
2022-10-11T08:36:35.069Z,11.50
2022-10-11T08:37:35.066Z,12.90
2022-10-11T08:38:35.016Z,14.50
2022-10-11T08:39:34.989Z,14.80
2022-10-11T08:40:35.507Z,12.70
2022-10-11T08:41:34.941Z,13.40
2022-10-11T08:42:34.922Z,13.30
2022-10-11T08:43:34.889Z,14.00
2022-10-11T08:44:58.392Z,12.50
2022-10-11T08:45:34.841Z,14.10
2022-10-11T08:46:34.825Z,14.30
2022-10-11T08:47:34.795Z,12.70
2022-10-11T08:48:34.772Z,16.30
2022-10-11T08:49:34.739Z,14.10
2022-10-11T08:50:34.722Z,13.20
2022-10-11T08:51:34.696Z,15.60
2022-10-11T08:52:34.674Z,13.40
2022-10-11T08:53:34.663Z,12.90
2022-10-11T08:54:34.620Z,15.10
2022-10-11T08:55:34.593Z,14.60
2022-10-11T08:56:34.574Z,19.30
2022-10-11T08:57:34.557Z,15.60
2022-10-11T08:58:34.522Z,12.70
2022-10-11T08:59:34.505Z,13.50
2022-10-11T09:00:34.474Z,14.20
2022-10-11T09:01:34.520Z,13.20
2022-10-11T09:02:55.772Z,16.10
2022-10-11T09:03:34.396Z,15.10
2022-10-11T09:04:34.374Z,14.50
2022-10-11T09:05:34.396Z,14.10
2022-10-11T09:06:34.329Z,14.50
2022-10-11T09:07:34.298Z,15.60
2022-10-11T09:08:34.275Z,14.30
2022-10-11T09:09:34.270Z,15.70
2022-10-11T09:10:34.224Z,16.80
2022-10-11T09:11:34.204Z,14.80
2022-10-11T09:12:38.403Z,13.90
2022-10-11T09:13:34.154Z,15.80
2022-10-11T09:14:34.129Z,15.40
2022-10-11T09:15:34.103Z,13.90
2022-10-11T09:16:34.086Z,14.40
2022-10-11T09:17:34.058Z,14.40
2022-10-11T09:18:34.033Z,14.60
2022-10-11T09:19:34.011Z,13.90
2022-10-11T09:20:33.986Z,20.30
2022-10-11T09:21:33.965Z,15.00
2022-10-11T09:22:33.937Z,14.70
2022-10-11T09:23:33.908Z,13.00
2022-10-11T09:24:33.887Z,17.30
2022-10-11T09:25:33.882Z,11.80
2022-10-11T09:26:33.844Z,13.80
2022-10-11T09:27:57.729Z,12.90
2022-10-11T09:28:33.849Z,13.60
2022-10-11T09:29:33.771Z,14.20
2022-10-11T09:30:33.743Z,13.80
2022-10-11T09:31:33.724Z,14.10
2022-10-11T09:32:33.695Z,15.00
2022-10-11T09:33:33.672Z,12.20
2022-10-11T09:34:33.653Z,12.00
2022-10-11T09:35:33.624Z,15.30
2022-10-11T09:36:33.604Z,12.30
2022-10-11T09:37:33.582Z,15.40
2022-10-11T09:38:33.555Z,13.90
2022-10-11T09:39:33.527Z,13.50
2022-10-11T09:40:33.511Z,13.20
2022-10-11T09:41:33.508Z,15.40
2022-10-11T09:42:33.464Z,13.30
2022-10-11T09:43:33.431Z,11.90
2022-10-11T09:44:33.419Z,16.00
2022-10-11T09:45:33.383Z,13.90
2022-10-11T09:46:33.364Z,14.50
2022-10-11T09:47:33.346Z,12.10
2022-10-11T09:48:33.319Z,13.80
2022-10-11T09:49:33.293Z,16.00
2022-10-11T09:50:33.265Z,13.90
2022-10-11T09:51:33.243Z,15.00
2022-10-11T09:52:33.222Z,11.30
2022-10-11T09:53:33.194Z,13.30
2022-10-11T09:54:33.174Z,10.20
2022-10-11T09:55:33.150Z,13.00
2022-10-11T09:56:33.124Z,11.30
2022-10-11T09:57:33.119Z,12.00
2022-10-11T09:58:33.076Z,12.70
2022-10-11T09:59:33.053Z,11.70
2022-10-11T10:00:33.031Z,12.00
2022-10-11T10:01:33.043Z,9.70
2022-10-11T10:02:32.983Z,12.10
2022-10-11T10:03:32.964Z,11.80
2022-10-11T10:04:32.935Z,12.10
2022-10-11T10:05:32.911Z,10.70
2022-10-11T10:06:32.891Z,13.30
2022-10-11T10:07:32.865Z,10.70
2022-10-11T10:08:32.846Z,14.00
2022-10-11T10:09:32.820Z,10.60
2022-10-11T10:10:32.797Z,13.20
2022-10-11T10:11:32.772Z,11.90
2022-10-11T10:12:32.748Z,11.10
2022-10-11T10:13:32.745Z,12.90
2022-10-11T10:14:32.701Z,11.40
2022-10-11T10:15:32.681Z,14.30
2022-10-11T10:16:32.661Z,12.00
2022-10-11T10:17:32.629Z,9.50
2022-10-11T10:18:32.605Z,15.20
2022-10-11T10:19:32.589Z,12.90
2022-10-11T10:20:32.557Z,10.40
2022-10-11T10:21:32.537Z,9.80
2022-10-11T10:22:32.517Z,11.60
2022-10-11T10:23:32.488Z,13.20
2022-10-11T10:24:32.474Z,9.30
2022-10-11T10:25:32.446Z,9.40
2022-10-11T10:26:32.427Z,13.90
2022-10-11T10:27:32.399Z,11.40
2022-10-11T10:28:32.431Z,12.20
2022-10-11T10:29:32.373Z,12.20
2022-10-11T10:30:35.539Z,11.10
2022-10-11T10:31:44.171Z,10.70
2022-10-11T10:32:32.282Z,10.40
2022-10-11T10:33:32.257Z,10.80
2022-10-11T10:34:32.234Z,11.50
2022-10-11T10:35:32.221Z,11.00
2022-10-11T10:36:32.188Z,10.60
2022-10-11T10:37:32.164Z,14.20
2022-10-11T10:38:32.140Z,11.00
2022-10-11T10:39:32.120Z,12.80
2022-10-11T10:40:32.102Z,10.80
2022-10-11T10:41:32.076Z,10.30
2022-10-11T10:42:32.050Z,12.60
2022-10-11T10:43:32.024Z,12.10
2022-10-11T10:44:32.005Z,10.20
2022-10-11T10:45:31.998Z,11.90
2022-10-11T10:46:31.966Z,12.00
2022-10-11T10:47:31.935Z,9.00
2022-10-11T10:48:48.165Z,9.90
2022-10-11T10:49:53.161Z,9.30
2022-10-11T10:50:31.869Z,10.60
2022-10-11T10:51:31.839Z,9.00
2022-10-11T10:52:31.817Z,10.90
2022-10-11T10:53:31.789Z,11.90
2022-10-11T10:54:31.772Z,8.10
2022-10-11T10:55:31.753Z,11.70
2022-10-11T10:56:31.731Z,11.50
2022-10-11T10:57:31.702Z,8.20
2022-10-11T10:58:31.679Z,10.00
2022-10-11T10:59:31.658Z,11.40
2022-10-11T11:00:31.637Z,8.80
2022-10-11T11:01:31.746Z,8.30
2022-10-11T11:02:46.990Z,10.20
2022-10-11T11:03:31.564Z,12.10
2022-10-11T11:04:31.545Z,9.40
2022-10-11T11:05:31.517Z,9.20
2022-10-11T11:06:34.200Z,8.10
2022-10-11T11:07:31.474Z,10.20
2022-10-11T11:08:31.455Z,10.10
2022-10-11T11:09:31.428Z,7.50
2022-10-11T11:10:31.405Z,11.70
2022-10-11T11:11:31.383Z,12.90
2022-10-11T11:12:31.360Z,10.80
2022-10-11T11:13:31.331Z,11.10
2022-10-11T11:14:31.312Z,8.60
2022-10-11T11:15:33.173Z,8.30
2022-10-11T11:16:31.267Z,11.90
2022-10-11T11:17:31.264Z,10.30
2022-10-11T11:18:31.218Z,11.40
2022-10-11T11:19:31.194Z,9.40
2022-10-11T11:20:31.175Z,10.10
2022-10-11T11:21:31.160Z,9.00
2022-10-11T11:22:32.890Z,14.70
2022-10-11T11:23:31.110Z,8.60
2022-10-11T11:24:31.089Z,10.90
2022-10-11T11:25:31.062Z,11.90
2022-10-11T11:26:31.039Z,8.40
2022-10-11T11:27:31.011Z,9.30
2022-10-11T11:28:31.025Z,12.10
2022-10-11T11:29:30.968Z,9.00
2022-10-11T11:30:30.952Z,9.20
2022-10-11T11:31:30.920Z,9.90
2022-10-11T11:32:30.904Z,8.90
2022-10-11T11:33:30.897Z,7.80
2022-10-11T11:34:30.857Z,8.00
2022-10-11T11:35:30.829Z,10.80
2022-10-11T11:36:30.809Z,9.80
2022-10-11T11:37:30.788Z,10.30
2022-10-11T11:38:30.765Z,9.30
2022-10-11T11:39:30.738Z,10.90
2022-10-11T11:40:30.715Z,14.90
2022-10-11T11:41:30.696Z,9.30
2022-10-11T11:42:30.671Z,8.30
2022-10-11T11:43:30.651Z,10.00
2022-10-11T11:44:30.629Z,12.10
2022-10-11T11:45:30.606Z,8.30
2022-10-11T11:46:30.586Z,9.10
2022-10-11T11:47:30.569Z,11.70
2022-10-11T11:48:30.540Z,13.90
2022-10-11T11:49:30.581Z,11.40
2022-10-11T11:50:32.596Z,10.30
2022-10-11T11:51:31.418Z,10.50
2022-10-11T11:52:30.449Z,8.00
2022-10-11T11:53:30.421Z,10.70
2022-10-11T11:54:30.402Z,9.30
2022-10-11T11:55:30.380Z,10.50
2022-10-11T11:56:30.369Z,8.40
2022-10-11T11:57:30.333Z,9.80
2022-10-11T11:58:30.314Z,9.40
2022-10-11T11:59:30.294Z,9.70
2022-10-11T12:00:30.270Z,9.10
2022-10-11T12:01:31.515Z,10.30
2022-10-11T12:02:30.222Z,11.60
2022-10-11T12:03:30.197Z,10.20
2022-10-11T12:04:30.177Z,10.60
2022-10-11T12:05:30.193Z,8.80
2022-10-11T12:06:30.132Z,10.80
2022-10-11T12:07:30.111Z,8.90
2022-10-11T12:08:30.090Z,11.30
2022-10-11T12:09:30.058Z,11.90
2022-10-11T12:10:30.042Z,10.10
2022-10-11T12:11:35.262Z,7.20
2022-10-11T12:12:29.998Z,8.60
2022-10-11T12:13:32.530Z,10.30
2022-10-11T12:14:29.957Z,9.30
2022-10-11T12:15:29.925Z,8.40
2022-10-11T12:16:29.910Z,9.70
2022-10-11T12:17:29.885Z,8.50
2022-10-11T12:18:29.864Z,11.10
2022-10-11T12:19:29.839Z,7.70
2022-10-11T12:20:29.815Z,10.10
2022-10-11T12:21:29.807Z,8.60
2022-10-11T12:22:29.771Z,7.70
2022-10-11T12:23:29.745Z,9.60
2022-10-11T12:24:29.726Z,9.60
2022-10-11T12:25:29.702Z,11.00
2022-10-11T12:26:29.677Z,10.20
2022-10-11T12:27:29.654Z,7.90
2022-10-11T12:28:29.651Z,8.90
2022-10-11T12:29:29.613Z,10.80
2022-10-11T12:30:29.593Z,11.50
2022-10-11T12:31:29.569Z,12.10
2022-10-11T12:32:29.544Z,8.60
2022-10-11T12:33:29.523Z,8.90
2022-10-11T12:34:29.538Z,8.10
2022-10-11T12:35:29.477Z,8.90
2022-10-11T12:36:29.454Z,8.90
2022-10-11T12:37:29.453Z,10.60
2022-10-11T12:38:29.406Z,10.60
2022-10-11T12:39:29.387Z,8.00
2022-10-11T12:40:29.367Z,9.80
2022-10-11T12:41:29.350Z,8.00
2022-10-11T12:42:29.325Z,10.00
2022-10-11T12:43:29.299Z,9.00
2022-10-11T12:44:29.282Z,10.00
2022-10-11T12:45:29.251Z,8.30
2022-10-11T12:46:29.233Z,9.20
2022-10-11T12:47:29.209Z,9.70
2022-10-11T12:48:34.892Z,8.50
2022-10-11T12:49:29.179Z,10.30
2022-10-11T12:50:29.146Z,10.90
2022-10-11T12:51:29.124Z,9.20
2022-10-11T12:52:29.107Z,9.30
2022-10-11T12:53:29.103Z,8.10
2022-10-11T12:54:34.508Z,10.70
2022-10-11T12:55:29.042Z,8.20
2022-10-11T12:56:29.015Z,7.70
2022-10-11T12:57:28.991Z,8.90
2022-10-11T12:58:28.967Z,7.90
2022-10-11T12:59:28.947Z,9.50
2022-10-11T13:00:28.929Z,7.80
2022-10-11T13:01:29.007Z,9.80
2022-10-11T13:02:29.080Z,10.40
2022-10-11T13:03:32.274Z,7.50
2022-10-11T13:04:28.836Z,9.10
2022-10-11T13:05:28.818Z,10.60
2022-10-11T13:06:28.795Z,9.20
2022-10-11T13:07:28.772Z,10.60